AFL727 LIRF-OMDB
Flight info
| Callsign | AFL727 |
|---|---|
| Flight time | N/A |
| Altitude | 19000 |
| Route | XIBRI5AXPEPIX9A/25 PEPIX L50 UNIXO/N0475F390 DCT BELIX UM728 SALUN N705 BOPIX N710 TAKRI M720 FYM M872 WEJ L604 DAXAP/N0480F410 L604 GAS L308 DAROR P559 NALPO/N0502F350 P559 VUTEB VUTEB3B |
| Aircraft | B77W/H-SDE1E2E3FGHIJ2J3J4J5M1RWXY/LB1D1 |
Departure
| Time | 2026-05-05 17:20 |
|---|---|
| Airport | Rome–Fiumicino Leonardo da Vinci International Airport (LIRF) |
Arrival
| Time | N/A |
|---|---|
| Airport | Dubai International Airport (OMDB) |
| Time | Latitude | Longitude | Altitude | Speed | Heading |
|---|---|---|---|---|---|
| 2026-05-05 17:20 | 41.74407 | 12.20627 | 1965 ft | 214 kts | 179° |
| 2026-05-05 17:20 | 41.72828 | 12.20654 | 2236 ft | 235 kts | 179° |
| 2026-05-05 17:21 | 41.71184 | 12.20668 | 2932 ft | 238 kts | 180° |
| 2026-05-05 17:21 | 41.69509 | 12.20664 | 3574 ft | 244 kts | 180° |
| 2026-05-05 17:21 | 41.67813 | 12.20644 | 4315 ft | 242 kts | 181° |
| 2026-05-05 17:22 | 41.64418 | 12.20572 | 5680 ft | 246 kts | 181° |
| 2026-05-05 17:22 | 41.62698 | 12.20525 | 6320 ft | 249 kts | 181° |
| 2026-05-05 17:22 | 41.60966 | 12.20473 | 6968 ft | 248 kts | 182° |
| 2026-05-05 17:22 | 41.59256 | 12.20418 | 7482 ft | 255 kts | 182° |
| 2026-05-05 17:23 | 41.57440 | 12.20356 | 8048 ft | 257 kts | 183° |
| 2026-05-05 17:23 | 41.55675 | 12.20295 | 8691 ft | 256 kts | 183° |
| 2026-05-05 17:23 | 41.53861 | 12.20230 | 9105 ft | 267 kts | 183° |
| 2026-05-05 17:23 | 41.51986 | 12.20162 | 9669 ft | 271 kts | 184° |
| 2026-05-05 17:24 | 41.50083 | 12.20094 | 10230 ft | 277 kts | 184° |
| 2026-05-05 17:24 | 41.48097 | 12.20021 | 10533 ft | 294 kts | 184° |
| 2026-05-05 17:24 | 41.45977 | 12.19942 | 10703 ft | 316 kts | 184° |
| 2026-05-05 17:24 | 41.43700 | 12.19856 | 10859 ft | 338 kts | 184° |
| 2026-05-05 17:25 | 41.41303 | 12.19768 | 11042 ft | 359 kts | 184° |
| 2026-05-05 17:25 | 41.39595 | 12.19706 | 11358 ft | 367 kts | 184° |
| 2026-05-05 17:25 | 41.36206 | 12.19586 | 12174 ft | 378 kts | 184° |
| 2026-05-05 17:25 | 41.33557 | 12.19492 | 12961 ft | 383 kts | 184° |
| 2026-05-05 17:26 | 41.30875 | 12.19397 | 13790 ft | 387 kts | 184° |
| 2026-05-05 17:26 | 41.28467 | 12.19311 | 14446 ft | 391 kts | 184° |
| 2026-05-05 17:26 | 41.25734 | 12.19212 | 15211 ft | 394 kts | 184° |
| 2026-05-05 17:26 | 41.22974 | 12.19112 | 15973 ft | 397 kts | 184° |
| 2026-05-05 17:27 | 41.20237 | 12.19013 | 16700 ft | 401 kts | 184° |
| 2026-05-05 17:27 | 41.17441 | 12.19294 | 17228 ft | 411 kts | 169° |
| 2026-05-05 17:27 | 41.14724 | 12.20750 | 17865 ft | 423 kts | 152° |
| 2026-05-05 17:27 | 41.12435 | 12.23164 | 18541 ft | 428 kts | 138° |
| 2026-05-05 17:28 | 41.10301 | 12.25975 | 18968 ft | 436 kts | 137° |
| 2026-05-05 17:28 | 41.08145 | 12.28834 | 19081 ft | 447 kts | 137° |
| 2026-05-05 17:28 | 41.05901 | 12.31792 | 19369 ft | 458 kts | 137° |
| 2026-05-05 17:28 | 41.03615 | 12.34779 | 19868 ft | 464 kts | 138° |
| 2026-05-05 17:29 | 41.01301 | 12.37780 | 20465 ft | 467 kts | 138° |
| 2026-05-05 17:29 | 40.98964 | 12.40791 | 20999 ft | 471 kts | 138° |
| 2026-05-05 17:29 | 40.96600 | 12.43824 | 21500 ft | 476 kts | 138° |
| 2026-05-05 17:29 | 40.94208 | 12.46885 | 21966 ft | 481 kts | 138° |
| 2026-05-05 17:30 | 40.91789 | 12.49979 | 22435 ft | 486 kts | 137° |
| 2026-05-05 17:30 | 40.89342 | 12.53106 | 22912 ft | 490 kts | 137° |
| 2026-05-05 17:30 | 40.86879 | 12.56251 | 23363 ft | 495 kts | 137° |
| 2026-05-05 17:30 | 40.84392 | 12.59425 | 23773 ft | 499 kts | 137° |
| 2026-05-05 17:31 | 40.81882 | 12.62625 | 24117 ft | 504 kts | 138° |
| 2026-05-05 17:31 | 40.79350 | 12.65853 | 24499 ft | 508 kts | 137° |
| 2026-05-05 17:31 | 40.76945 | 12.69221 | 24847 ft | 513 kts | 132° |
| 2026-05-05 17:31 | 40.74754 | 12.72966 | 25175 ft | 518 kts | 127° |
| 2026-05-05 17:32 | 40.72659 | 12.76853 | 25519 ft | 522 kts | 127° |
| 2026-05-05 17:32 | 40.70548 | 12.80791 | 25828 ft | 526 kts | 127° |
| 2026-05-05 17:32 | 40.68427 | 12.84735 | 26111 ft | 530 kts | 127° |
| 2026-05-05 17:32 | 40.66279 | 12.88701 | 26413 ft | 533 kts | 127° |
| 2026-05-05 17:33 | 40.64111 | 12.92680 | 26684 ft | 536 kts | 127° |
| 2026-05-05 17:33 | 40.61928 | 12.96663 | 27023 ft | 538 kts | 128° |
| 2026-05-05 17:33 | 40.59730 | 13.00660 | 27413 ft | 538 kts | 128° |
| 2026-05-05 17:33 | 40.57534 | 13.04645 | 27839 ft | 537 kts | 128° |
| 2026-05-05 17:34 | 40.55338 | 13.08621 | 28236 ft | 538 kts | 128° |
| 2026-05-05 17:34 | 40.53137 | 13.12603 | 28630 ft | 538 kts | 128° |
| 2026-05-05 17:34 | 40.50941 | 13.16572 | 29040 ft | 538 kts | 128° |
| 2026-05-05 17:34 | 40.48733 | 13.20559 | 29446 ft | 539 kts | 128° |
| 2026-05-05 17:35 | 40.46555 | 13.24487 | 29830 ft | 539 kts | 128° |
| 2026-05-05 17:35 | 40.44338 | 13.28481 | 30219 ft | 539 kts | 128° |
| 2026-05-05 17:35 | 40.42137 | 13.32442 | 30583 ft | 538 kts | 128° |
| 2026-05-05 17:35 | 40.39926 | 13.36417 | 30962 ft | 537 kts | 128° |
| 2026-05-05 17:36 | 40.37734 | 13.40351 | 31351 ft | 536 kts | 128° |
| 2026-05-05 17:36 | 40.35534 | 13.44295 | 31740 ft | 534 kts | 128° |
| 2026-05-05 17:36 | 40.33342 | 13.48221 | 32109 ft | 533 kts | 128° |
| 2026-05-05 17:36 | 40.31149 | 13.52141 | 32470 ft | 532 kts | 128° |
| 2026-05-05 17:37 | 40.28961 | 13.56048 | 32816 ft | 531 kts | 128° |
| 2026-05-05 17:37 | 40.27518 | 13.58624 | 33040 ft | 530 kts | 128° |
| 2026-05-05 17:37 | 40.24601 | 13.63820 | 33491 ft | 529 kts | 128° |
| 2026-05-05 17:37 | 40.22424 | 13.67693 | 33819 ft | 528 kts | 128° |
| 2026-05-05 17:38 | 40.20246 | 13.71562 | 34112 ft | 527 kts | 128° |
| 2026-05-05 17:38 | 40.18075 | 13.75414 | 34376 ft | 526 kts | 128° |
| 2026-05-05 17:38 | 40.15904 | 13.79262 | 34642 ft | 525 kts | 128° |
| 2026-05-05 17:38 | 40.13736 | 13.83100 | 34909 ft | 524 kts | 128° |
| 2026-05-05 17:39 | 40.11596 | 13.86885 | 35161 ft | 523 kts | 128° |
| 2026-05-05 17:39 | 40.09405 | 13.90755 | 35419 ft | 522 kts | 128° |
| 2026-05-05 17:39 | 40.07278 | 13.94507 | 35661 ft | 521 kts | 128° |
| 2026-05-05 17:39 | 40.05122 | 13.98306 | 35864 ft | 521 kts | 128° |
| 2026-05-05 17:40 | 40.02963 | 14.02105 | 36095 ft | 520 kts | 128° |
| 2026-05-05 17:40 | 40.00808 | 14.05892 | 36348 ft | 519 kts | 128° |
| 2026-05-05 17:40 | 39.98661 | 14.09661 | 36544 ft | 518 kts | 128° |
| 2026-05-05 17:40 | 39.96512 | 14.13428 | 36738 ft | 517 kts | 128° |
| 2026-05-05 17:41 | 39.94365 | 14.17188 | 36915 ft | 517 kts | 128° |
| 2026-05-05 17:41 | 39.90064 | 14.24706 | 37048 ft | 517 kts | 128° |
| 2026-05-05 17:42 | 39.85773 | 14.32189 | 37058 ft | 518 kts | 128° |
| 2026-05-05 17:42 | 39.81466 | 14.39684 | 37063 ft | 517 kts | 128° |
| 2026-05-05 17:43 | 39.77151 | 14.47173 | 37061 ft | 516 kts | 128° |
| 2026-05-05 17:43 | 39.72836 | 14.54646 | 37061 ft | 516 kts | 128° |
| 2026-05-05 17:44 | 39.68529 | 14.62085 | 37062 ft | 516 kts | 128° |